createdAt,value
2022-08-14T00:02:07.553Z,18.50
2022-08-14T00:05:12.681Z,18.40
2022-08-14T00:08:17.952Z,18.50
2022-08-14T00:11:43.531Z,18.50
2022-08-14T00:14:46.841Z,18.60
2022-08-14T00:17:59.165Z,18.50
2022-08-14T00:21:03.132Z,18.50
2022-08-14T00:24:08.015Z,18.40
2022-08-14T00:27:13.146Z,18.40
2022-08-14T00:30:20.373Z,18.40
2022-08-14T00:33:23.602Z,18.40
2022-08-14T00:36:48.319Z,18.40
2022-08-14T00:39:53.288Z,18.40
2022-08-14T00:42:56.677Z,18.30
2022-08-14T00:46:02.529Z,18.30
2022-08-14T00:49:11.574Z,18.30
2022-08-14T00:52:18.630Z,18.30
2022-08-14T00:55:23.514Z,18.20
2022-08-14T00:58:33.414Z,18.20
2022-08-14T01:01:37.290Z,18.20
2022-08-14T01:04:53.801Z,18.10
2022-08-14T01:07:58.585Z,18.00
2022-08-14T01:11:03.920Z,18.00
2022-08-14T01:14:25.732Z,18.00
2022-08-14T01:17:49.543Z,18.00
2022-08-14T01:21:08.974Z,17.90
2022-08-14T01:24:28.870Z,17.90
2022-08-14T01:27:53.860Z,17.80
2022-08-14T01:31:01.870Z,17.60
2022-08-14T01:35:20.263Z,17.60
2022-08-14T01:37:31.452Z,17.60
2022-08-14T01:40:41.888Z,17.60
2022-08-14T01:43:56.384Z,17.60
2022-08-14T01:47:01.872Z,17.50
2022-08-14T01:50:10.565Z,17.50
2022-08-14T01:53:17.878Z,17.50
2022-08-14T01:56:24.541Z,17.50
2022-08-14T01:59:38.192Z,17.50
2022-08-14T02:02:42.618Z,17.50
2022-08-14T02:05:49.924Z,17.50
2022-08-14T02:08:55.272Z,17.40
2022-08-14T02:12:01.030Z,17.50
2022-08-14T02:15:09.252Z,17.50
2022-08-14T02:18:15.149Z,17.50
2022-08-14T02:21:19.391Z,17.50
2022-08-14T02:24:39.088Z,17.40
2022-08-14T02:28:25.074Z,17.30
2022-08-14T02:31:09.543Z,17.30
2022-08-14T02:34:22.509Z,17.40
2022-08-14T02:37:45.705Z,17.30
2022-08-14T02:40:51.647Z,17.40
2022-08-14T02:44:00.812Z,17.30
2022-08-14T02:47:07.085Z,17.20
2022-08-14T02:50:17.981Z,17.30
2022-08-14T02:53:21.154Z,17.30
2022-08-14T02:56:30.210Z,17.20
2022-08-14T02:59:51.295Z,17.20
2022-08-14T03:02:59.071Z,17.20
2022-08-14T03:06:03.150Z,17.20
2022-08-14T03:09:06.789Z,17.10
2022-08-14T03:12:10.901Z,17.10
2022-08-14T03:15:16.611Z,17.10
2022-08-14T03:18:31.922Z,17.00
2022-08-14T03:21:37.210Z,17.00
2022-08-14T03:24:40.472Z,16.90
2022-08-14T03:27:48.305Z,16.90
2022-08-14T03:31:03.943Z,16.90
2022-08-14T03:34:24.998Z,16.80
2022-08-14T03:39:10.013Z,16.80
2022-08-14T03:40:58.948Z,16.70
2022-08-14T03:45:25.640Z,16.80
2022-08-14T03:47:38.176Z,16.70
2022-08-14T03:50:53.007Z,16.80
2022-08-14T03:54:01.472Z,16.80
2022-08-14T03:57:06.307Z,16.70
2022-08-14T04:00:40.369Z,16.70
2022-08-14T04:03:37.942Z,16.70
2022-08-14T04:06:47.527Z,16.80
2022-08-14T04:09:52.594Z,16.80
2022-08-14T04:12:59.438Z,16.80
2022-08-14T04:16:12.431Z,16.70
2022-08-14T04:19:23.626Z,16.60
2022-08-14T04:22:26.817Z,16.60
2022-08-14T04:25:34.131Z,16.60
2022-08-14T04:29:06.717Z,16.70
2022-08-14T04:33:10.255Z,16.70
2022-08-14T04:35:55.591Z,16.60
2022-08-14T04:39:16.898Z,16.60
2022-08-14T04:42:37.381Z,16.60
2022-08-14T04:45:41.806Z,16.70
2022-08-14T04:48:51.034Z,16.80
2022-08-14T04:51:56.559Z,16.90
2022-08-14T04:54:59.759Z,17.00
2022-08-14T04:58:05.502Z,17.10
2022-08-14T05:01:19.627Z,17.20
2022-08-14T05:04:25.194Z,17.30
2022-08-14T05:07:46.394Z,17.40
2022-08-14T05:10:51.933Z,17.60
2022-08-14T05:14:17.043Z,17.80
2022-08-14T05:17:19.810Z,18.00
2022-08-14T05:21:04.844Z,18.10
2022-08-14T05:23:50.068Z,18.30
2022-08-14T05:26:53.449Z,18.50
2022-08-14T05:29:57.460Z,18.70
2022-08-14T05:33:01.346Z,18.90
2022-08-14T05:36:06.908Z,19.20
2022-08-14T05:39:22.152Z,19.60
2022-08-14T05:42:29.517Z,20.10
2022-08-14T05:45:37.353Z,20.50
2022-08-14T05:48:42.897Z,20.90
2022-08-14T05:51:47.379Z,21.30
2022-08-14T05:54:55.553Z,21.80
2022-08-14T05:58:02.441Z,22.10
2022-08-14T06:01:06.105Z,22.30
2022-08-14T06:04:09.234Z,22.60
2022-08-14T06:07:16.065Z,22.90
2022-08-14T06:10:21.304Z,23.10
2022-08-14T06:13:31.540Z,23.80
2022-08-14T06:16:45.300Z,24.40
2022-08-14T06:19:48.393Z,25.10
2022-08-14T06:22:52.313Z,25.80
2022-08-14T06:25:56.872Z,26.20
2022-08-14T06:29:01.007Z,26.90
2022-08-14T06:32:37.272Z,27.40
2022-08-14T06:35:28.837Z,27.40
2022-08-14T06:38:31.965Z,28.00
2022-08-14T06:41:58.252Z,28.40
2022-08-14T06:45:02.886Z,28.80
2022-08-14T06:48:14.322Z,29.60
2022-08-14T06:51:21.098Z,30.20
2022-08-14T06:54:31.569Z,30.60
2022-08-14T06:57:41.732Z,31.10
2022-08-14T07:01:05.970Z,31.70
2022-08-14T07:04:27.358Z,31.90
2022-08-14T07:07:37.892Z,32.60
2022-08-14T07:10:43.715Z,33.40
2022-08-14T07:13:48.889Z,33.60
2022-08-14T07:16:54.252Z,33.90
2022-08-14T07:19:57.368Z,34.50
2022-08-14T07:23:08.048Z,34.80
2022-08-14T07:26:13.242Z,35.10
2022-08-14T07:29:19.851Z,35.60
2022-08-14T07:32:33.767Z,36.50
2022-08-14T07:35:57.635Z,36.80
2022-08-14T07:39:03.634Z,37.40
2022-08-14T07:42:16.160Z,37.60
2022-08-14T07:45:24.658Z,38.30
2022-08-14T07:48:28.484Z,39.20
2022-08-14T07:51:36.752Z,39.70
2022-08-14T07:54:42.914Z,40.20
2022-08-14T07:57:48.572Z,41.00
2022-08-14T08:00:58.080Z,41.80
2022-08-14T08:04:06.709Z,42.30
2022-08-14T08:07:22.237Z,42.40
2022-08-14T08:11:01.506Z,43.10
2022-08-14T08:14:03.501Z,43.40
2022-08-14T08:17:08.365Z,43.90
2022-08-14T08:20:19.981Z,44.10
2022-08-14T08:23:30.355Z,44.70
2022-08-14T08:26:37.733Z,44.30
2022-08-14T08:29:42.761Z,43.80
2022-08-14T08:32:57.509Z,43.80
2022-08-14T08:36:01.861Z,44.40
2022-08-14T08:39:17.266Z,44.80
2022-08-14T08:42:31.761Z,45.20
2022-08-14T08:45:42.278Z,45.80
2022-08-14T08:48:53.757Z,45.60
2022-08-14T08:52:04.306Z,46.00
2022-08-14T08:55:10.828Z,46.60
2022-08-14T08:58:24.847Z,46.20
2022-08-14T09:01:30.947Z,45.70
2022-08-14T09:04:45.727Z,44.90
2022-08-14T09:08:19.427Z,43.90
2022-08-14T09:11:32.939Z,42.20
2022-08-14T09:14:39.959Z,40.70
2022-08-14T09:17:44.215Z,39.10
2022-08-14T09:20:52.123Z,38.20
2022-08-14T09:24:28.706Z,37.60
2022-08-14T09:27:23.403Z,37.20
2022-08-14T09:30:32.480Z,36.70
2022-08-14T09:33:59.468Z,35.60
2022-08-14T09:37:21.353Z,34.70
2022-08-14T09:40:37.261Z,34.20
2022-08-14T09:43:50.734Z,33.80
2022-08-14T09:46:55.492Z,33.40
2022-08-14T09:50:01.688Z,33.30
2022-08-14T09:53:17.733Z,33.10
2022-08-14T09:56:30.498Z,33.00
2022-08-14T09:59:46.170Z,32.20
2022-08-14T10:02:58.409Z,32.10
2022-08-14T10:06:10.320Z,31.90
2022-08-14T10:09:16.841Z,31.60
2022-08-14T10:12:28.700Z,31.50
2022-08-14T10:15:34.277Z,31.40
2022-08-14T10:18:37.560Z,31.40
2022-08-14T10:23:10.897Z,31.20
2022-08-14T10:25:15.454Z,30.80
2022-08-14T10:28:39.220Z,31.00
2022-08-14T10:31:45.351Z,30.90
2022-08-14T10:34:52.815Z,30.80
2022-08-14T10:37:56.439Z,31.10
2022-08-14T10:41:13.431Z,31.10
2022-08-14T10:44:20.914Z,31.00
2022-08-14T10:48:02.510Z,31.00
2022-08-14T10:51:01.375Z,31.20
2022-08-14T10:54:26.252Z,30.90
2022-08-14T10:57:35.662Z,31.00
2022-08-14T11:00:47.307Z,31.10
2022-08-14T11:03:56.806Z,31.30
2022-08-14T11:07:00.466Z,31.30
2022-08-14T11:10:08.526Z,31.20
2022-08-14T11:13:18.782Z,31.20
2022-08-14T11:16:23.049Z,31.00
2022-08-14T11:19:30.115Z,31.10
2022-08-14T11:22:56.458Z,31.10
2022-08-14T11:26:02.272Z,31.10
2022-08-14T11:29:12.266Z,31.30
2022-08-14T11:32:15.409Z,31.10
2022-08-14T11:35:21.900Z,30.70
2022-08-14T11:38:26.002Z,30.80
2022-08-14T11:41:30.174Z,31.10
2022-08-14T11:44:45.602Z,31.10
2022-08-14T11:48:12.637Z,31.00
2022-08-14T11:51:30.482Z,31.00
2022-08-14T11:54:35.549Z,31.10
2022-08-14T11:57:39.511Z,31.20
2022-08-14T12:00:53.691Z,31.30
2022-08-14T12:03:59.168Z,31.30
2022-08-14T12:07:08.418Z,31.40
2022-08-14T12:10:27.167Z,31.50
2022-08-14T12:13:36.260Z,31.30
2022-08-14T12:16:41.748Z,31.40
2022-08-14T12:19:50.927Z,31.50
2022-08-14T12:22:55.018Z,31.60
2022-08-14T12:26:32.017Z,31.80
2022-08-14T12:29:27.980Z,31.80
2022-08-14T12:32:47.303Z,31.60
2022-08-14T12:35:51.291Z,31.10
2022-08-14T12:39:01.814Z,31.00
2022-08-14T12:42:11.669Z,31.10
2022-08-14T12:45:34.812Z,30.90
2022-08-14T12:48:50.297Z,30.90
2022-08-14T12:51:59.090Z,30.90
2022-08-14T12:55:06.461Z,31.10
2022-08-14T12:58:35.282Z,31.10
2022-08-14T13:01:59.477Z,30.60
2022-08-14T13:05:00.692Z,30.50
2022-08-14T13:08:10.695Z,30.50
2022-08-14T13:11:37.687Z,30.40
2022-08-14T13:14:49.031Z,30.50
2022-08-14T13:17:53.752Z,30.60
2022-08-14T13:21:02.401Z,30.70
2022-08-14T13:24:08.360Z,30.60
2022-08-14T13:27:13.444Z,30.60
2022-08-14T13:30:24.101Z,30.40
2022-08-14T13:33:28.683Z,30.30
2022-08-14T13:36:54.873Z,30.30
2022-08-14T13:39:58.434Z,30.40
2022-08-14T13:43:02.107Z,30.50
2022-08-14T13:46:05.225Z,30.50
2022-08-14T13:49:12.204Z,30.50
2022-08-14T13:52:51.770Z,30.40
2022-08-14T13:55:52.240Z,30.50
2022-08-14T13:58:59.840Z,30.50
2022-08-14T14:02:07.003Z,30.30
2022-08-14T14:05:13.296Z,30.10
2022-08-14T14:08:46.626Z,30.00
2022-08-14T14:11:45.988Z,30.00
2022-08-14T14:14:51.792Z,30.00
2022-08-14T14:17:58.558Z,30.00
2022-08-14T14:21:03.128Z,30.00
2022-08-14T14:24:08.248Z,30.00
2022-08-14T14:27:39.312Z,29.90
2022-08-14T14:30:52.994Z,30.00
2022-08-14T14:33:59.736Z,30.20
2022-08-14T14:37:05.075Z,30.00
2022-08-14T14:40:53.018Z,29.70
2022-08-14T14:43:41.352Z,29.60
2022-08-14T14:46:50.118Z,29.50
2022-08-14T14:49:55.550Z,29.50
2022-08-14T14:53:12.358Z,29.70
2022-08-14T14:56:50.220Z,29.80
2022-08-14T14:59:41.238Z,29.80
2022-08-14T15:02:47.051Z,29.70
2022-08-14T15:05:53.494Z,29.60
2022-08-14T15:08:59.739Z,29.60
2022-08-14T15:12:05.689Z,29.60
2022-08-14T15:15:28.737Z,29.60
2022-08-14T15:18:39.467Z,29.50
2022-08-14T15:21:45.399Z,29.40
2022-08-14T15:24:51.471Z,29.30
2022-08-14T15:27:55.925Z,29.30
2022-08-14T15:30:59.340Z,29.30
2022-08-14T15:34:44.996Z,29.30
2022-08-14T15:37:42.390Z,29.30
2022-08-14T15:40:51.678Z,29.20
2022-08-14T15:44:00.604Z,29.20
2022-08-14T15:47:06.955Z,29.10
2022-08-14T15:50:11.042Z,29.30
2022-08-14T15:53:14.633Z,29.30
2022-08-14T15:56:32.921Z,29.30
2022-08-14T16:00:00.426Z,29.30
2022-08-14T16:03:04.122Z,29.20
2022-08-14T16:06:15.621Z,29.20
2022-08-14T16:09:21.360Z,29.20
2022-08-14T16:12:41.170Z,29.30
2022-08-14T16:15:53.193Z,29.30
2022-08-14T16:18:59.124Z,29.40
2022-08-14T16:22:59.267Z,29.50
2022-08-14T16:25:35.377Z,29.70
2022-08-14T16:28:38.703Z,29.80
2022-08-14T16:31:44.977Z,29.80
2022-08-14T16:34:54.980Z,29.80
2022-08-14T16:38:00.309Z,29.80
2022-08-14T16:41:27.555Z,29.70
2022-08-14T16:44:39.151Z,29.60
2022-08-14T16:47:47.895Z,29.60
2022-08-14T16:50:53.836Z,29.40
2022-08-14T16:54:00.200Z,29.20
2022-08-14T16:57:16.255Z,29.00
2022-08-14T17:00:32.681Z,28.80
2022-08-14T17:03:53.032Z,28.70
2022-08-14T17:06:57.450Z,28.70
2022-08-14T17:10:09.244Z,28.70
2022-08-14T17:13:20.195Z,28.60
2022-08-14T17:16:24.769Z,28.50
2022-08-14T17:19:40.217Z,28.50
2022-08-14T17:22:50.295Z,28.40
2022-08-14T17:25:53.402Z,28.20
2022-08-14T17:29:06.030Z,28.00
2022-08-14T17:32:28.047Z,28.00
2022-08-14T17:35:57.594Z,27.90
2022-08-14T17:39:06.145Z,27.90
2022-08-14T17:42:13.369Z,27.80
2022-08-14T17:45:18.704Z,27.90
2022-08-14T17:49:14.594Z,27.70
2022-08-14T17:52:02.630Z,27.70
2022-08-14T17:55:07.767Z,27.60
2022-08-14T17:58:20.371Z,27.50
2022-08-14T18:01:25.931Z,27.30
2022-08-14T18:04:34.752Z,27.20
2022-08-14T18:08:31.525Z,27.10
2022-08-14T18:11:03.320Z,27.00
2022-08-14T18:14:06.908Z,26.80
2022-08-14T18:17:30.222Z,26.80
2022-08-14T18:21:42.320Z,26.60
2022-08-14T18:24:02.458Z,26.50
2022-08-14T18:27:11.883Z,26.50
2022-08-14T18:30:31.612Z,26.40
2022-08-14T18:33:52.874Z,26.30
2022-08-14T18:36:59.840Z,26.30
2022-08-14T18:40:34.353Z,26.30
2022-08-14T18:43:44.273Z,26.20
2022-08-14T18:47:25.618Z,26.20
2022-08-14T18:50:31.000Z,26.20
2022-08-14T18:53:53.515Z,26.10
2022-08-14T18:56:59.400Z,26.10
2022-08-14T19:00:51.116Z,26.00
2022-08-14T19:03:57.358Z,26.00
2022-08-14T19:07:16.603Z,26.00
2022-08-14T19:10:37.582Z,25.90
2022-08-14T19:13:44.540Z,25.80
2022-08-14T19:16:53.492Z,25.80
2022-08-14T19:20:07.645Z,25.80
2022-08-14T19:23:21.292Z,25.80
2022-08-14T19:26:35.796Z,25.70
2022-08-14T19:29:42.542Z,25.70
2022-08-14T19:32:57.054Z,25.70
2022-08-14T19:36:28.692Z,25.60
2022-08-14T19:39:53.589Z,25.60
2022-08-14T19:42:59.320Z,25.50
2022-08-14T19:46:04.169Z,25.50
2022-08-14T19:50:25.117Z,25.50
2022-08-14T19:53:05.287Z,25.40
2022-08-14T19:56:28.714Z,25.50
2022-08-14T19:59:36.654Z,25.40
2022-08-14T20:03:10.815Z,25.40
2022-08-14T20:06:18.216Z,25.40
2022-08-14T20:11:04.860Z,25.40
2022-08-14T20:12:57.249Z,25.40
2022-08-14T20:16:12.211Z,25.40
2022-08-14T20:19:23.121Z,25.50
2022-08-14T20:22:37.237Z,25.40
2022-08-14T20:25:45.695Z,25.30
2022-08-14T20:29:00.136Z,25.20
2022-08-14T20:32:08.701Z,25.20
2022-08-14T20:35:35.565Z,25.10
2022-08-14T20:38:39.281Z,25.10
2022-08-14T20:42:13.400Z,25.00
2022-08-14T20:45:24.207Z,25.00
2022-08-14T20:48:53.227Z,25.00
2022-08-14T20:52:00.322Z,25.00
2022-08-14T20:55:29.325Z,25.00
2022-08-14T20:58:43.339Z,25.00
2022-08-14T21:01:55.189Z,24.90
2022-08-14T21:05:00.954Z,24.80
2022-08-14T21:08:09.910Z,24.70
2022-08-14T21:11:28.210Z,24.80
2022-08-14T21:14:31.402Z,24.70
2022-08-14T21:17:38.731Z,24.60
2022-08-14T21:20:46.043Z,24.50
2022-08-14T21:23:55.667Z,24.40
2022-08-14T21:27:12.247Z,24.40
2022-08-14T21:30:20.886Z,24.50
2022-08-14T21:33:26.563Z,24.60
2022-08-14T21:36:30.919Z,24.70
2022-08-14T21:39:34.714Z,24.60
2022-08-14T21:42:38.234Z,24.50
2022-08-14T21:45:42.698Z,24.50
2022-08-14T21:48:47.176Z,24.50
2022-08-14T21:51:57.183Z,24.50
2022-08-14T21:55:09.659Z,24.50
2022-08-14T21:58:53.720Z,24.40
2022-08-14T22:02:00.748Z,24.40
2022-08-14T22:05:03.452Z,24.40
2022-08-14T22:08:12.373Z,24.30
2022-08-14T22:11:17.549Z,24.30
2022-08-14T22:14:26.100Z,24.20
2022-08-14T22:17:34.188Z,24.20
2022-08-14T22:20:40.063Z,24.20
2022-08-14T22:23:43.771Z,24.20
2022-08-14T22:26:47.660Z,24.10
2022-08-14T22:29:54.735Z,24.10
2022-08-14T22:33:01.273Z,24.10
2022-08-14T22:36:27.397Z,24.10
2022-08-14T22:40:16.892Z,24.00
2022-08-14T22:43:01.218Z,24.00
2022-08-14T22:46:14.935Z,23.90
2022-08-14T22:50:31.885Z,23.90
2022-08-14T22:52:49.476Z,23.90
2022-08-14T22:55:52.997Z,23.80
2022-08-14T22:58:57.558Z,23.70
2022-08-14T23:02:05.768Z,23.70
2022-08-14T23:05:15.470Z,23.60
2022-08-14T23:08:56.558Z,23.60
2022-08-14T23:11:44.511Z,23.50
2022-08-14T23:14:47.779Z,23.50
2022-08-14T23:17:52.668Z,23.50
2022-08-14T23:20:56.242Z,23.40
2022-08-14T23:24:00.750Z,23.30
2022-08-14T23:27:09.345Z,23.30
2022-08-14T23:30:34.172Z,23.30
2022-08-14T23:33:45.763Z,23.20
2022-08-14T23:36:54.449Z,23.20
2022-08-14T23:39:59.990Z,23.10
2022-08-14T23:43:08.093Z,23.10
2022-08-14T23:46:14.867Z,23.10
2022-08-14T23:49:20.369Z,23.00
2022-08-14T23:52:51.128Z,23.10
2022-08-14T23:55:54.691Z,23.00
2022-08-14T23:59:01.136Z,22.90
